x

Buoy E01 - Central Maine Shelf (44032) Weather Station

12:04 - Sun 22nd Jan 2017 All times are EST. -5 hours from GMT.

  • Wind
    13mph, 16mph gusts
  • Sea Temp 43°f
  • Aire Temp 37°f
  • Sea Pressure 1011.4mb
  • Buoy E01 - Central Maine Shelf
  • Buoy E01 - Central Maine Shelf

More Historic Weather Station data

Upgrade to MSW Pro to gain access to the past 30 days of data for over 8000 Wavebouys and Weather Stations around the globe.

Join Pro

Comparision Forecast

View Surf forecast
   
dom 01/22 12:04  -   -  13 16 mph 1011.4mb 43f 37f
11:04 5.5ft 11s 18 20 mph 1011.4mb 43f 37f
10:04  -   -  16 18 mph 1011.4mb 43f 37f
9:04 5ft 11s 16 20 mph 1010.8mb 43f 37f
8:04 2.5ft 4s 20 22 mph 1010.4mb 43f 37f
7:04 3ft 4s 22 25 mph 1009.2mb 43f 37f
6:04 2.5ft 3s 22 27 mph 1007.8mb 43f 37f
5:04  -   -  18 22 mph 1007.7mb 43f 38f
4:04 5ft 16s 16 18 mph 1007.1mb 43f 40f
3:04 4.5ft 16s 2 4 mph 1006.8mb 43f 41f
2:04 6ft 16s 2 4 mph 1007.3mb 43f 42f
1:04 4.5ft 11s  -  2 mph 1007.1mb 43f 42f
12:04 4ft 11s 4
mph
1006.7mb 43f 42f
sáb 01/21 11:04  -   -  4
mph
1006.9mb 43f 42f
10:04 7ft 11s 2 4 mph 1007.1mb 43f 42f
9:04 5ft 11s 2 4 mph 1007.1mb 43f 42f
8:04 4.5ft 11s 2 4 mph 1006.8mb 43f 41f
7:04 4.5ft 11s 7 9 mph 1007.2mb 43f 41f
6:04 4.5ft 11s 4
mph
1006.5mb 43f 41f
5:04 4ft 11s 7 9 mph 1006.2mb 43f 41f
4:04 4ft 11s 7 9 mph 1005.6mb 43f 41f
3:04 5ft 11s 7 9 mph 1006.2mb 43f 40f
2:04 2.5ft 5s 9
mph
1006.3mb 44f 40f
1:04 5ft 11s 7 9 mph 1006.5mb 44f 39f
12:04  -   -  9 11 mph 1007.4mb 44f 38f
11:04 5ft 11s 11 16 mph 1008.6mb 44f 38f
10:04 5ft 11s 13 16 mph 1009.8mb 44f 38f
9:04 5.5ft 11s 18 22 mph 1009.6mb 44f 40f
8:04 3ft 4s 16 18 mph 1009.4mb 44f 40f
7:04  -   -  13 18 mph 1009.7mb 43f 41f
6:04 5ft 11s 13 16 mph 1010.2mb 44f 41f
5:04 4.5ft 11s 13 18 mph 1010.3mb 44f 41f
4:04 4.5ft 11s 16 22 mph 1010.9mb 44f 41f
3:04  -   -  16 18 mph 1011.7mb 44f 40f
2:04 3.5ft 11s 11 16 mph 1012.3mb 44f 40f
1:04 5ft 11s 16 20 mph 1012.4mb 44f 40f
12:04 4.5ft 11s 13 18 mph 1012.7mb 44f 40f
vie 01/20 11:04 4ft 11s 9 11 mph 1013.5mb 44f 40f
10:04 3.5ft 11s 7 11 mph 1013.9mb 44f 39f
9:04 3.5ft 11s 9 11 mph 1013.9mb 44f 39f
8:04 4ft 11s 9 11 mph 1014.3mb 44f 39f
7:04 4ft 11s 7 9 mph 1014.3mb 44f 39f
6:04 3.5ft 11s 9 11 mph 1014.3mb 44f 39f
5:04 3.5ft 11s 9 11 mph 1014.4mb 44f 39f
4:04 3.5ft 8s 4 7 mph 1014.4mb 45f 39f
3:04 4.5ft 11s 4 7 mph 1014.5mb 45f 40f
2:04 5ft 11s 4 7 mph 1014.8mb 45f 39f
1:04 4.5ft 8s 2 4 mph 1015mb 45f 40f
12:04 5.5ft 11s 7 9 mph 1015.5mb 45f 39f
11:04 6ft 11s 11 13 mph 1016.2mb 44f 38f
10:04 5.5ft 11s 16 18 mph 1016.6mb 45f 37f
9:04 5.5ft 11s 16 20 mph 1016.3mb 45f 37f
8:04 5.5ft 11s 16 18 mph 1016.5mb 45f 36f
7:04 5.5ft 11s 13 16 mph 1016.1mb 45f 35f
6:04 5ft 11s 16 18 mph 1015.8mb 45f 35f
5:04 5ft 11s 13 18 mph 1015mb 45f 35f
4:04 5.5ft 11s 16 20 mph 1014.5mb 45f 36f
3:04 5.5ft 11s 20 22 mph 1014.6mb 45f 36f
2:04 7ft 11s 18 20 mph 1014.9mb 45f 37f
1:04 5ft 11s 16 20 mph 1015.7mb 45f 37f
12:04 6ft 11s 16 20 mph 1016.3mb 45f 37f
jue 01/19 11:04 6ft 11s 16 18 mph 1016mb 45f 37f
10:04 7.5ft 11s 13 18 mph 1015.8mb 45f 38f
9:04 6ft 11s 16 18 mph 1015.4mb 45f 38f
8:04 7.5ft 11s 16 18 mph 1014.7mb 45f 39f
7:04 5.5ft 11s 13 18 mph 1014.4mb 45f 39f
6:04 5.5ft 11s 13 18 mph 1013.9mb 45f 39f
5:04 4.5ft 8s 13 16 mph 1013.1mb 45f 38f
4:04 4.5ft 8s 11 13 mph 1012.8mb 45f 38f
3:04 4.5ft 8s 9 11 mph 1012.8mb 45f 37f
2:04 5.5ft 11s 9 11 mph 1012.9mb 45f 36f
1:04 5.5ft 8s 11 16 mph 1013.3mb 45f 33f
12:04 6ft 8s 11 16 mph 1013.5mb 45f 33f
11:04 5.5ft 8s 11 13 mph 1014.3mb 45f 33f
10:04 5.5ft 8s 7 9 mph 1015.2mb 45f 34f
9:04 6ft 8s 2 4 mph 1015.5mb 45f 33f
8:04 5ft 8s 9 13 mph 1015.5mb 45f 31f
7:04 6ft 8s 11 13 mph 1015mb 45f 32f
6:04 6ft 8s 9 11 mph 1014.9mb 45f 35f
5:04 6ft 8s 9 13 mph 1014.7mb 45f 35f
4:04 5ft 8s 9 11 mph 1015mb 45f 35f
3:04 6ft 8s 9 11 mph 1015.4mb 45f 36f
2:04 5ft 8s 13 16 mph 1015mb 45f 36f
1:04 7ft 8s 13 20 mph 1015.6mb 45f 34f
12:04 6ft 8s 16 18 mph 1016.1mb 45f 33f
mié 01/18 11:04 7ft 8s 11 16 mph 1016.6mb 45f 35f
10:04 6.5ft 8s 13 18 mph 1017.4mb 45f 35f
9:04 7ft 8s 16 20 mph 1017.8mb 45f 34f
8:04 8ft 8s 18 22 mph 1018.4mb 45f 33f
7:04 7ft 8s 18 22 mph 1018.5mb 45f 34f